Time;durP1;ratioP1;P1;durP2;ratioP2;P2;SDS_P1;SDS_P2;PMS_P1;PMS_P2;Temp;Humidity;BMP_temperature;BMP_pressure;BME280_temperature;BME280_humidity;BME280_pressure;Samples;Min_cycle;Max_cycle;Signal;HPM_P1;HPM_P2
2021/04/11 00:01:50;;;;;;;45.42;19.23;;;10.00;99.90;;;;;;8294493;28;20034;-68
2021/04/11 00:05:52;;;;;;;45.25;19.15;;;10.00;99.90;;;;;;8294537;28;20616;-69
2021/04/11 00:09:52;;;;;;;45.83;19.30;;;9.90;99.90;;;;;;8293231;28;20034;-69
2021/04/11 00:13:55;;;;;;;46.40;19.20;;;10.00;99.90;;;;;;8294099;28;20036;-69
2021/04/11 00:17:56;;;;;;;45.90;19.23;;;9.90;99.90;;;;;;8294198;28;20488;-70
2021/04/11 00:21:56;;;;;;;45.40;19.10;;;10.00;99.90;;;;;;8319021;28;20022;-69
2021/04/11 00:25:57;;;;;;;45.42;19.38;;;9.90;99.90;;;;;;8325120;28;20029;-69
2021/04/11 00:29:58;;;;;;;45.45;19.42;;;9.90;99.90;;;;;;8326709;28;20503;-69
2021/04/11 00:33:58;;;;;;;41.33;18.17;;;9.80;99.90;;;;;;8325239;28;20034;-69
2021/04/11 00:37:59;;;;;;;41.40;18.08;;;9.70;99.90;;;;;;8326542;28;20116;-69
2021/04/11 00:42:07;;;;;;;42.50;18.10;;;9.50;99.90;;;;;;8325154;28;20029;-69
2021/04/11 00:46:43;;;;;;;42.45;18.50;;;9.20;99.90;;;;;;8326511;28;20022;-69
2021/04/11 00:51:03;;;;;;;41.00;18.05;;;9.20;99.90;;;;;;8324644;28;20044;-70
2021/04/11 00:55:03;;;;;;;40.10;17.83;;;9.00;99.90;;;;;;8326243;28;20083;-70
2021/04/11 00:59:06;;;;;;;42.47;18.38;;;9.20;99.90;;;;;;8326310;28;20025;-69
2021/04/11 01:03:07;;;;;;;42.53;18.33;;;9.40;99.90;;;;;;8326133;28;20041;-69
2021/04/11 01:07:12;;;;;;;43.03;18.17;;;9.30;99.90;;;;;;8324978;28;20075;-69
2021/04/11 01:11:19;;;;;;;43.72;18.70;;;9.10;99.90;;;;;;8326044;28;20085;-70
2021/04/11 01:15:27;;;;;;;43.53;18.15;;;8.70;99.90;;;;;;8325921;28;20065;-69
2021/04/11 01:19:33;;;;;;;43.95;18.60;;;8.40;99.90;;;;;;8319669;28;20045;-70
2021/04/11 01:24:00;;;;;;;44.13;18.63;;;8.30;99.90;;;;;;8291698;28;20029;-70
2021/04/11 01:28:25;;;;;;;43.85;18.27;;;8.30;99.90;;;;;;8293330;28;20026;-69
2021/04/11 01:32:27;;;;;;;44.67;18.85;;;8.70;99.90;;;;;;8281079;28;20026;-70
2021/04/11 01:36:30;;;;;;;44.03;18.48;;;8.40;99.90;;;;;;8298027;28;20036;-69
2021/04/11 01:40:47;;;;;;;44.03;18.42;;;8.40;99.90;;;;;;8298510;28;20062;-69
2021/04/11 01:44:50;;;;;;;44.30;18.13;;;8.40;99.90;;;;;;8298521;28;20025;-70
2021/04/11 01:48:52;;;;;;;44.20;18.48;;;8.30;99.90;;;;;;8298084;28;20640;-69
2021/04/11 01:52:53;;;;;;;44.05;18.65;;;8.30;99.90;;;;;;8330829;28;20044;-69
2021/04/11 01:56:54;;;;;;;43.55;18.38;;;8.30;99.90;;;;;;8330196;28;20048;-69
2021/04/11 02:01:10;;;;;;;43.45;18.35;;;8.20;99.90;;;;;;8330738;28;20030;-68
2021/04/11 02:05:20;;;;;;;43.38;18.52;;;8.10;99.90;;;;;;8329348;28;20129;-70
2021/04/11 02:09:26;;;;;;;42.88;18.08;;;8.40;99.90;;;;;;8330828;28;20379;-69
2021/04/11 02:13:31;;;;;;;43.10;18.33;;;8.10;99.90;;;;;;8330338;28;20404;-69
2021/04/11 02:17:32;;;;;;;43.45;18.45;;;8.00;99.90;;;;;;8330459;28;20029;-69
2021/04/11 02:21:33;;;;;;;43.22;18.30;;;7.90;99.90;;;;;;8330203;28;20033;-69
2021/04/11 02:25:46;;;;;;;43.72;18.42;;;8.20;99.90;;;;;;8328805;28;20462;-70
2021/04/11 02:29:47;;;;;;;43.65;18.38;;;7.90;99.90;;;;;;8330121;28;20491;-69
2021/04/11 02:33:47;;;;;;;44.05;18.50;;;7.90;99.90;;;;;;8329728;28;20029;-69
2021/04/11 02:37:53;;;;;;;44.45;18.40;;;7.90;99.90;;;;;;8328434;28;20120;-69
2021/04/11 02:41:55;;;;;;;44.13;18.50;;;7.70;99.90;;;;;;8329363;28;20079;-69
2021/04/11 02:45:57;;;;;;;44.03;18.27;;;7.60;99.90;;;;;;8328292;28;20092;-69
2021/04/11 02:49:59;;;;;;;43.38;18.23;;;7.60;99.90;;;;;;8319749;28;20041;-69
2021/04/11 02:54:03;;;;;;;43.55;18.17;;;7.60;99.90;;;;;;8296382;28;20535;-69
2021/04/11 02:58:04;;;;;;;43.35;18.10;;;7.70;99.90;;;;;;8296375;28;20584;-69
2021/04/11 03:02:06;;;;;;;43.75;18.38;;;7.80;99.90;;;;;;8296117;28;20068;-70
2021/04/11 03:06:17;;;;;;;44.35;18.48;;;7.90;99.90;;;;;;8296092;28;20022;-69
2021/04/11 03:10:45;;;;;;;43.92;18.33;;;7.90;99.90;;;;;;8296001;28;20041;-69
2021/04/11 03:14:46;;;;;;;43.70;18.17;;;8.10;99.90;;;;;;8267573;28;20091;-69
2021/04/11 03:18:47;;;;;;;43.70;18.13;;;7.90;99.90;;;;;;8295748;28;20057;-69
2021/04/11 03:22:52;;;;;;;43.00;18.10;;;7.90;99.90;;;;;;8295334;28;20018;-69
2021/04/11 03:27:06;;;;;;;43.45;18.15;;;7.90;99.90;;;;;;8295569;28;20030;-69
2021/04/11 03:31:22;;;;;;;43.60;18.38;;;7.80;99.90;;;;;;8295432;28;20029;-69
2021/04/11 03:35:26;;;;;;;43.40;18.45;;;8.00;99.90;;;;;;8295309;28;20113;-69
2021/04/11 03:39:31;;;;;;;43.65;18.23;;;8.10;99.90;;;;;;8295015;28;20034;-69
2021/04/11 03:43:41;;;;;;;43.40;18.13;;;8.10;99.90;;;;;;8295009;28;20022;-69
2021/04/11 03:47:53;;;;;;;44.05;18.55;;;8.00;99.90;;;;;;8295158;28;20025;-70
2021/04/11 03:51:57;;;;;;;43.50;18.30;;;8.00;99.90;;;;;;8319391;28;20527;-69
2021/04/11 03:56:01;;;;;;;43.97;18.58;;;8.00;99.90;;;;;;8326764;28;20022;-69
2021/04/11 04:00:11;;;;;;;43.53;18.17;;;7.90;99.90;;;;;;8327167;28;20025;-69
2021/04/11 04:04:15;;;;;;;43.25;18.35;;;8.10;99.90;;;;;;8327128;28;20060;-69
2021/04/11 04:08:16;;;;;;;43.97;18.30;;;8.20;99.90;;;;;;8327270;28;20040;-69
2021/04/11 04:12:54;;;;;;;44.92;18.95;;;8.00;99.90;;;;;;8326918;28;20057;-69
2021/04/11 04:17:15;;;;;;;44.70;18.58;;;7.70;99.90;;;;;;8296249;28;20040;-69
2021/04/11 04:21:16;;;;;;;;;;;7.70;99.90;;;;;;8322936;28;20040;-70
2021/04/11 04:25:32;;;;;;;44.72;18.65;;;7.60;99.90;;;;;;8294408;28;20360;-69
2021/04/11 04:29:40;;;;;;;44.78;18.40;;;7.70;99.90;;;;;;8294650;28;20034;-69
2021/04/11 04:33:49;;;;;;;44.63;18.35;;;7.60;99.90;;;;;;8293975;28;20076;-69
2021/04/11 04:38:07;;;;;;;44.88;18.88;;;7.60;99.90;;;;;;8292913;28;20068;-69
2021/04/11 04:42:26;;;;;;;44.60;18.42;;;7.60;99.90;;;;;;8292662;28;20030;-70
2021/04/11 04:46:55;;;;;;;44.15;18.45;;;7.50;99.90;;;;;;8292763;28;20064;-69
2021/04/11 04:51:10;;;;;;;44.72;18.55;;;7.50;99.90;;;;;;8310104;28;20040;-69
2021/04/11 04:55:37;;;;;;;44.45;18.45;;;7.60;99.90;;;;;;8326227;28;20038;-69
2021/04/11 04:59:51;;;;;;;44.60;18.45;;;7.70;99.90;;;;;;8312020;28;20466;-69
2021/04/11 05:03:58;;;;;;;44.42;18.48;;;7.70;99.90;;;;;;8311403;28;20026;-69
2021/04/11 05:08:07;;;;;;;44.60;18.45;;;7.80;99.90;;;;;;8309236;28;20033;-69
2021/04/11 05:12:13;;;;;;;44.42;18.45;;;7.80;99.90;;;;;;8313792;28;20142;-69
2021/04/11 05:16:28;;;;;;;44.38;18.48;;;7.70;99.90;;;;;;8315248;28;20409;-69
2021/04/11 05:20:33;;;;;;;44.47;18.25;;;7.90;99.90;;;;;;8313794;28;20037;-69
2021/04/11 05:24:40;;;;;;;44.90;18.58;;;8.00;99.90;;;;;;8313842;28;20037;-69
2021/04/11 05:29:03;;;;;;;44.25;18.40;;;8.00;99.90;;;;;;8300431;28;20030;-69
2021/04/11 05:33:04;;;;;;;44.28;18.45;;;8.10;99.90;;;;;;8298903;28;20463;-69
2021/04/11 05:37:10;;;;;;;44.35;18.45;;;8.30;99.90;;;;;;8294839;28;20030;-69
2021/04/11 05:41:22;;;;;;;44.45;18.35;;;8.30;99.90;;;;;;8296924;28;20060;-69
2021/04/11 05:45:37;;;;;;;45.47;18.75;;;8.50;99.90;;;;;;8296888;28;20103;-69
2021/04/11 05:49:49;;;;;;;45.03;18.75;;;8.50;99.90;;;;;;8297044;28;20441;-69
2021/04/11 05:53:55;;;;;;;45.75;18.38;;;8.80;99.90;;;;;;8298294;28;20463;-69
2021/04/11 05:58:00;;;;;;;43.95;18.42;;;9.20;99.90;;;;;;8296989;28;20030;-69
2021/04/11 06:02:04;;;;;;;46.05;18.75;;;9.30;99.90;;;;;;8296934;28;20026;-69
2021/04/11 06:06:30;;;;;;;46.45;18.95;;;9.70;99.90;;;;;;8297912;28;20093;-69
2021/04/11 06:10:55;;;;;;;43.13;18.10;;;10.10;99.90;;;;;;8296468;28;20053;-69
2021/04/11 06:15:13;;;;;;;43.70;18.40;;;10.40;99.90;;;;;;8297596;28;20033;-69
2021/04/11 06:19:14;;;;;;;46.22;18.77;;;10.50;99.90;;;;;;8298979;28;20034;-69
2021/04/11 06:23:29;;;;;;;43.72;18.50;;;10.60;99.90;;;;;;8317218;28;20025;-69
2021/04/11 06:27:57;;;;;;;44.00;18.95;;;11.00;99.90;;;;;;8311722;28;20036;-69
2021/04/11 06:32:10;;;;;;;46.13;19.63;;;11.50;99.90;;;;;;8304677;28;20060;-69
2021/04/11 06:36:19;;;;;;;46.35;19.13;;;11.70;99.90;;;;;;8298596;28;20030;-69
2021/04/11 06:40:45;;;;;;;47.60;19.40;;;11.80;99.90;;;;;;8306928;28;20492;-69
2021/04/11 06:45:17;;;;;;;47.17;19.30;;;12.00;99.90;;;;;;8329507;28;20024;-69
2021/04/11 06:49:39;;;;;;;48.50;19.50;;;12.20;99.90;;;;;;8314424;28;20040;-69
2021/04/11 06:54:01;;;;;;;46.13;19.08;;;12.50;99.90;;;;;;8304209;28;20042;-69
2021/04/11 06:58:07;;;;;;;;;;;12.70;99.90;;;;;;8297051;28;20099;-69
2021/04/11 07:02:45;;;;;;;49.58;19.65;;;12.90;99.90;;;;;;8314787;28;20296;-69
2021/04/11 07:07:27;;;;;;;51.30;19.98;;;12.90;99.90;;;;;;8328983;28;20026;-69
2021/04/11 07:11:54;;;;;;;51.95;20.20;;;13.10;99.90;;;;;;8328812;28;20435;-69
2021/04/11 07:16:22;;;;;;;52.00;20.00;;;13.30;99.90;;;;;;8328460;28;20064;-69
2021/04/11 07:21:05;;;;;;;53.22;20.58;;;13.50;99.90;;;;;;8327216;28;20137;-70
2021/04/11 07:25:33;;;;;;;53.15;20.50;;;13.60;99.90;;;;;;8327696;28;20083;-66
2021/04/11 07:30:08;;;;;;;53.90;20.77;;;13.50;99.90;;;;;;8328249;28;20021;-68
2021/04/11 07:34:27;;;;;;;54.30;20.25;;;13.70;99.90;;;;;;8313318;28;20021;-68
2021/04/11 07:38:47;;;;;;;54.38;20.65;;;13.70;99.90;;;;;;8313203;28;20133;-66
2021/04/11 07:42:51;;;;;;;55.05;20.83;;;14.00;99.90;;;;;;8311834;28;20029;-70
2021/04/11 07:47:07;;;;;;;54.85;20.92;;;13.70;99.90;;;;;;8299138;28;20104;-66
2021/04/11 07:51:25;;;;;;;54.80;20.50;;;13.80;99.90;;;;;;8315645;28;20045;-67
2021/04/11 07:55:56;;;;;;;55.63;20.83;;;13.90;99.90;;;;;;8325164;28;20079;-67
2021/04/11 08:00:17;;;;;;;55.05;20.70;;;13.90;99.90;;;;;;8327644;28;20036;-66
2021/04/11 08:04:23;;;;;;;;;;;13.80;99.90;;;;;;8326801;28;20096;-67
2021/04/11 08:08:39;;;;;;;56.95;20.73;;;14.20;99.90;;;;;;8327366;28;19956;-67
2021/04/11 08:13:05;;;;;;;57.72;21.67;;;14.40;99.90;;;;;;8326759;28;20243;-67
2021/04/11 08:17:27;;;;;;;57.63;20.60;;;14.70;99.90;;;;;;8327210;28;20053;-66
2021/04/11 08:21:30;;;;;;;58.90;21.23;;;14.70;99.90;;;;;;8325736;28;20079;-67
2021/04/11 08:26:02;;;;;;;59.90;21.05;;;15.40;99.90;;;;;;8326955;28;20024;-68
2021/04/11 08:30:12;;;;;;;60.28;21.52;;;15.40;99.90;;;;;;8300416;28;20065;-67
2021/04/11 08:34:16;;;;;;;60.58;21.52;;;15.50;99.90;;;;;;8302462;28;20033;-69
2021/04/11 08:38:38;;;;;;;62.33;21.92;;;15.50;99.90;;;;;;8309922;28;20021;-69
2021/04/11 08:43:13;;;;;;;62.88;21.55;;;15.90;99.90;;;;;;8307124;28;20405;-69
2021/04/11 08:47:26;;;;;;;62.70;21.38;;;16.30;99.90;;;;;;8316289;28;20402;-69
2021/04/11 08:51:29;;;;;;;62.60;21.30;;;16.80;99.90;;;;;;8315660;28;20117;-69
2021/04/11 08:55:48;;;;;;;65.95;22.35;;;17.40;99.50;;;;;;8314115;28;20156;-68
2021/04/11 08:59:58;;;;;;;67.10;22.30;;;17.80;97.50;;;;;;8317856;28;20113;-68
2021/04/11 09:04:33;;;;;;;67.97;22.65;;;17.80;91.80;;;;;;8315795;28;20041;-69
2021/04/11 09:09:05;;;;;;;63.80;21.83;;;18.50;91.40;;;;;;8314914;28;20177;-69
2021/04/11 09:13:34;;;;;;;66.55;22.45;;;18.60;86.70;;;;;;8316128;28;20489;-69
2021/04/11 09:17:42;;;;;;;63.33;22.25;;;19.00;87.70;;;;;;8313249;28;20049;-67
2021/04/11 09:22:24;;;;;;;62.28;21.80;;;19.20;78.10;;;;;;8313484;28;20101;-67
2021/04/11 09:26:39;;;;;;;63.05;22.02;;;18.60;67.30;;;;;;8315601;28;20029;-67
2021/04/11 09:31:10;;;;;;;65.90;22.10;;;18.30;66.20;;;;;;8314963;28;20029;-68
2021/04/11 09:35:35;;;;;;;66.45;22.35;;;18.70;68.80;;;;;;8314237;28;20037;-67
2021/04/11 09:40:00;;;;;;;69.18;22.58;;;18.80;74.10;;;;;;8314724;28;20109;-69
2021/04/11 09:44:13;;;;;;;70.43;22.73;;;19.70;72.60;;;;;;8314372;28;20044;-67
2021/04/11 09:48:38;;;;;;;72.03;23.15;;;20.30;69.80;;;;;;8312946;28;20030;-67
2021/04/11 09:53:10;;;;;;;72.68;22.98;;;20.80;71.30;;;;;;8312393;28;20076;-69
2021/04/11 09:57:35;;;;;;;74.63;23.25;;;20.80;64.20;;;;;;8323023;28;20026;-69
2021/04/11 10:01:58;;;;;;;74.80;24.05;;;21.20;62.00;;;;;;8308422;28;20040;-70
2021/04/11 10:06:31;;;;;;;72.35;22.90;;;20.80;57.50;;;;;;8330831;28;20033;-69
2021/04/11 10:11:05;;;;;;;74.00;23.48;;;20.10;58.00;;;;;;8329457;28;20029;-69
2021/04/11 10:15:30;;;;;;;74.95;23.55;;;20.10;57.00;;;;;;8303989;28;20477;-69
2021/04/11 10:19:36;;;;;;;76.25;23.42;;;20.30;56.30;;;;;;8303197;28;20057;-70
2021/04/11 10:24:09;;;;;;;77.15;23.60;;;20.90;63.40;;;;;;8329701;28;20071;-69
2021/04/11 10:28:39;;;;;;;76.22;23.42;;;21.10;54.20;;;;;;8328949;28;20037;-69
2021/04/11 10:32:43;;;;;;;75.25;23.48;;;20.40;54.40;;;;;;8310454;28;20051;-69
2021/04/11 10:37:19;;;;;;;75.18;23.48;;;19.90;54.60;;;;;;8315076;28;20034;-70
2021/04/11 10:41:35;;;;;;;75.47;23.70;;;19.40;55.60;;;;;;8314198;28;20071;-68
2021/04/11 10:45:57;;;;;;;76.20;24.08;;;19.50;57.00;;;;;;8313430;28;20049;-69
2021/04/11 10:50:06;;;;;;;76.65;23.80;;;19.30;57.90;;;;;;8318179;28;20446;-69
2021/04/11 10:54:41;;;;;;;75.82;23.75;;;19.30;57.60;;;;;;8314965;28;20017;-69
2021/04/11 10:58:44;;;;;;;76.30;23.45;;;19.30;58.70;;;;;;8312345;28;20168;-69
2021/04/11 11:03:23;;;;;;;76.40;23.40;;;19.10;59.50;;;;;;8311250;28;20018;-70
2021/04/11 11:07:46;;;;;;;76.00;23.42;;;19.10;60.90;;;;;;8311168;28;20025;-68
2021/04/11 11:12:24;;;;;;;77.88;24.40;;;19.10;63.80;;;;;;8311867;28;20026;-70
2021/04/11 11:17:02;;;;;;;77.40;23.80;;;19.20;62.60;;;;;;8312544;28;20109;-69
2021/04/11 11:21:09;;;;;;;77.22;23.67;;;19.40;63.90;;;;;;8316581;28;20049;-69
2021/04/11 11:25:25;;;;;;;78.82;24.27;;;19.70;59.80;;;;;;8314454;28;20036;-68
2021/04/11 11:29:42;;;;;;;77.82;23.67;;;20.00;60.40;;;;;;8308538;28;20037;-69
2021/04/11 11:34:08;;;;;;;78.85;23.75;;;20.00;59.30;;;;;;8302232;28;20032;-69
2021/04/11 11:38:14;;;;;;;78.28;23.83;;;20.30;59.70;;;;;;8311733;28;20514;-69
2021/04/11 11:42:26;;;;;;;78.88;24.42;;;20.20;59.10;;;;;;8315138;28;20080;-69
2021/04/11 11:46:53;;;;;;;80.35;23.98;;;20.50;56.60;;;;;;8311520;28;20425;-70
2021/04/11 11:51:13;;;;;;;81.10;24.10;;;21.80;54.50;;;;;;8311243;28;20041;-69
2021/04/11 11:55:16;;;;;;;88.35;24.95;;;24.20;52.70;;;;;;8312371;28;20033;-69
2021/04/11 11:59:33;;;;;;;88.47;24.92;;;25.90;49.30;;;;;;8321277;28;20025;-70
2021/04/11 12:03:36;;;;;;;85.90;24.33;;;;;;;;;;8322483;28;20061;-69
2021/04/11 12:07:48;;;;;;;91.55;25.42;;;27.20;41.20;;;;;;8297415;28;20025;-70
2021/04/11 12:12:08;;;;;;;89.65;25.10;;;27.90;40.00;;;;;;8323194;28;20032;-70
2021/04/11 12:16:18;;;;;;;85.32;24.83;;;27.40;41.40;;;;;;8310032;28;20038;-69
2021/04/11 12:20:49;;;;;;;89.60;25.35;;;27.30;41.50;;;;;;8309209;28;20057;-69
2021/04/11 12:25:02;;;;;;;89.53;25.80;;;28.00;39.20;;;;;;8293559;28;20034;-69
2021/04/11 12:29:13;;;;;;;92.90;26.45;;;29.50;39.10;;;;;;8296243;28;20038;-69
2021/04/11 12:33:29;;;;;;;81.88;24.52;;;32.00;33.40;;;;;;8308147;28;20033;-69
2021/04/11 12:37:40;;;;;;;82.53;23.77;;;32.30;31.90;;;;;;8309536;28;20428;-70
2021/04/11 12:42:07;;;;;;;83.90;24.30;;;31.60;32.10;;;;;;8312001;28;20109;-69
2021/04/11 12:46:39;;;;;;;80.72;23.92;;;32.30;30.70;;;;;;8325488;28;20018;-68
2021/04/11 12:51:05;;;;;;;77.30;23.90;;;33.70;30.20;;;;;;8314939;28;20033;-68
2021/04/11 12:55:21;;;;;;;72.55;23.05;;;31.70;30.60;;;;;;8278816;28;20025;-68
2021/04/11 12:59:32;;;;;;;73.15;23.55;;;29.70;32.00;;;;;;8302175;28;20049;-67
2021/04/11 13:03:39;;;;;;;71.00;23.25;;;30.10;30.50;;;;;;8291998;28;20101;-67
2021/04/11 13:08:15;;;;;;;69.72;22.63;;;30.40;29.80;;;;;;8292844;28;20503;-67
2021/04/11 13:12:40;;;;;;;75.38;26.17;;;30.30;30.50;;;;;;8282162;28;20069;-68
2021/04/11 13:16:51;;;;;;;71.20;23.30;;;30.90;30.60;;;;;;8324948;28;20674;-68
2021/04/11 13:21:03;;;;;;;72.65;23.02;;;31.20;30.10;;;;;;8324717;28;20119;-68
2021/04/11 13:25:23;;;;;;;70.82;23.00;;;31.00;30.80;;;;;;8309135;28;20049;-66
2021/04/11 13:29:39;;;;;;;68.55;22.25;;;30.20;30.90;;;;;;8312195;28;20076;-67
2021/04/11 13:33:52;;;;;;;67.47;22.65;;;29.60;31.40;;;;;;8314277;28;20033;-67
2021/04/11 13:37:56;;;;;;;72.63;23.30;;;30.40;30.10;;;;;;8314313;28;20037;-67
2021/04/11 13:42:12;;;;;;;73.05;23.40;;;32.30;29.20;;;;;;8314088;28;20014;-68
2021/04/11 13:46:33;;;;;;;67.90;22.50;;;31.40;30.40;;;;;;8312415;28;20144;-67
2021/04/11 13:51:04;;;;;;;68.75;22.60;;;29.30;32.40;;;;;;8312342;28;20065;-67
2021/04/11 13:55:14;;;;;;;69.38;22.63;;;29.50;31.30;;;;;;8314119;28;20030;-68
2021/04/11 13:59:52;;;;;;;76.35;23.70;;;30.40;31.10;;;;;;8301025;28;20018;-67
2021/04/11 14:04:04;;;;;;;76.25;23.67;;;28.70;33.20;;;;;;8311970;28;20092;-66
2021/04/11 14:08:19;;;;;;;71.72;23.27;;;30.80;30.00;;;;;;8311641;28;20032;-66
2021/04/11 14:12:30;;;;;;;71.65;24.40;;;31.70;29.20;;;;;;8311458;28;20049;-67
2021/04/11 14:16:47;;;;;;;68.45;24.00;;;31.70;29.60;;;;;;8311618;28;20022;-67
2021/04/11 14:20:53;;;;;;;72.60;23.48;;;31.10;29.20;;;;;;8307171;28;20026;-66
2021/04/11 14:25:03;;;;;;;76.65;25.25;;;31.30;28.40;;;;;;8321494;28;20025;-67
2021/04/11 14:29:42;;;;;;;67.63;23.05;;;26.60;33.40;;;;;;8315478;28;20504;-67
2021/04/11 14:33:56;;;;;;;68.55;22.88;;;24.50;37.00;;;;;;8320216;28;20192;-67
2021/04/11 14:38:09;;;;;;;68.25;21.83;;;25.30;37.20;;;;;;8326905;28;20091;-66
2021/04/11 14:42:24;;;;;;;74.45;23.75;;;28.10;34.90;;;;;;8317952;28;20097;-67
2021/04/11 14:46:48;;;;;;;73.53;23.23;;;30.20;31.20;;;;;;8295980;28;20037;-67
2021/04/11 14:50:50;;;;;;;77.07;24.35;;;30.70;30.10;;;;;;8313994;28;20030;-66
2021/04/11 14:54:58;;;;;;;81.55;24.83;;;31.00;29.70;;;;;;8348365;28;20036;-67
2021/04/11 14:59:24;;;;;;;78.47;23.95;;;31.60;29.50;;;;;;8350380;28;20029;-68
2021/04/11 15:03:47;;;;;;;70.85;23.45;;;30.30;29.60;;;;;;8358875;28;20526;-67
2021/04/11 15:08:25;;;;;;;67.72;22.95;;;25.80;35.20;;;;;;8344205;28;20492;-67
2021/04/11 15:12:35;;;;;;;78.47;24.17;;;24.60;38.70;;;;;;8332265;28;20038;-67
2021/04/11 15:16:45;;;;;;;80.22;24.90;;;28.40;33.60;;;;;;8353342;28;20018;-68
2021/04/11 15:21:12;;;;;;;83.60;24.77;;;28.80;31.40;;;;;;8350777;28;20025;-68
2021/04/11 15:25:43;;;;;;;88.97;25.20;;;27.60;32.70;;;;;;8350947;28;20052;-68
2021/04/11 15:29:52;;;;;;;84.00;24.85;;;27.80;33.70;;;;;;8350878;28;20207;-68
2021/04/11 15:34:22;;;;;;;77.97;24.17;;;27.80;32.10;;;;;;8357571;28;20478;-68
2021/04/11 15:38:29;;;;;;;68.75;23.17;;;25.40;34.60;;;;;;8353240;28;20025;-68
2021/04/11 15:42:59;;;;;;;67.15;21.63;;;24.30;36.90;;;;;;8354486;28;20040;-68
2021/04/11 15:47:05;;;;;;;63.05;21.80;;;24.60;37.20;;;;;;8339507;28;20043;-68
2021/04/11 15:51:35;;;;;;;76.38;24.08;;;24.60;36.80;;;;;;8348353;28;20407;-73
2021/04/11 15:55:50;;;;;;;89.93;25.80;;;26.80;36.40;;;;;;8315950;28;20025;-70
2021/04/11 16:00:20;;;;;;;87.07;25.30;;;29.80;31.50;;;;;;8295052;28;20088;-71
2021/04/11 16:04:40;;;;;;;91.38;26.20;;;30.10;30.00;;;;;;8294136;28;20029;-70
2021/04/11 16:09:10;;;;;;;93.72;26.90;;;30.40;29.80;;;;;;8301400;28;20554;-70
2021/04/11 16:13:26;;;;;;;98.15;26.83;;;30.30;29.90;;;;;;8309297;28;20034;-71
2021/04/11 16:18:02;;;;;;;80.55;25.05;;;30.30;31.40;;;;;;8312334;28;20104;-70
2021/04/11 16:22:27;;;;;;;68.22;22.88;;;27.60;32.20;;;;;;8278210;28;20469;-70
2021/04/11 16:27:05;;;;;;;64.90;22.05;;;24.10;37.20;;;;;;8298102;28;20037;-69
2021/04/11 16:31:43;;;;;;;63.78;22.75;;;22.60;40.40;;;;;;8315097;28;20068;-69
2021/04/11 16:35:54;;;;;;;56.53;21.63;;;21.50;42.20;;;;;;8316157;28;20400;-69
2021/04/11 16:40:09;;;;;;;;;;;20.70;43.30;;;;;;8340472;28;20040;-70
2021/04/11 16:44:34;;;;;;;53.35;21.33;;;20.40;43.90;;;;;;8341321;28;19924;-69
2021/04/11 16:48:49;;;;;;;51.65;20.83;;;20.20;44.40;;;;;;8345927;28;20125;-70
2021/04/11 16:53:06;;;;;;;52.33;22.40;;;19.80;45.40;;;;;;8336902;28;20072;-70
2021/04/11 16:57:14;;;;;;;50.83;20.95;;;19.60;46.00;;;;;;8338735;28;20053;-70
2021/04/11 17:01:28;;;;;;;50.35;20.55;;;19.50;45.90;;;;;;8341277;28;20435;-69
2021/04/11 17:05:34;;;;;;;51.40;20.92;;;19.30;47.10;;;;;;8351562;28;20045;-70
2021/04/11 17:09:54;;;;;;;51.03;21.23;;;19.10;48.30;;;;;;8347386;28;20499;-70
2021/04/11 17:14:25;;;;;;;51.20;20.88;;;19.10;47.70;;;;;;8342551;28;20071;-70
2021/04/11 17:18:28;;;;;;;50.08;20.42;;;18.90;48.60;;;;;;8325532;28;20025;-70
2021/04/11 17:22:40;;;;;;;47.40;20.20;;;18.90;51.30;;;;;;8346261;28;20120;-70
2021/04/11 17:27:19;;;;;;;47.63;20.40;;;19.00;51.50;;;;;;8351659;28;20033;-70
2021/04/11 17:31:39;;;;;;;48.15;20.02;;;18.90;50.90;;;;;;8347191;28;20044;-69
2021/04/11 17:35:56;;;;;;;46.65;20.27;;;18.20;56.30;;;;;;8343930;28;20061;-70
2021/04/11 17:39:58;;;;;;;45.60;19.60;;;18.00;55.90;;;;;;8327188;28;20033;-70
2021/04/11 17:44:36;;;;;;;44.17;19.33;;;17.30;62.10;;;;;;8350596;28;20492;-69
2021/04/11 17:48:57;;;;;;;40.63;18.90;;;16.30;72.70;;;;;;8352199;28;20407;-69
2021/04/11 17:52:58;;;;;;;;;;;15.30;82.40;;;;;;8348462;28;20119;-70
2021/04/11 17:57:43;;;;;;;38.90;19.17;;;14.90;91.10;;;;;;8353546;28;19909;-70
2021/04/11 18:02:00;;;;;;;36.83;18.80;;;14.70;96.50;;;;;;8339467;28;20590;-69
2021/04/11 18:06:19;;;;;;;39.70;18.55;;;14.30;99.90;;;;;;8357244;28;20100;-69
2021/04/11 18:10:27;;;;;;;38.45;18.38;;;13.90;99.90;;;;;;8359026;28;20029;-69
2021/04/11 18:14:36;;;;;;;37.40;18.02;;;13.90;99.90;;;;;;8350323;28;20029;-69
2021/04/11 18:18:55;;;;;;;37.60;18.10;;;13.90;99.90;;;;;;8354305;28;20073;-69
2021/04/11 18:23:08;;;;;;;37.20;17.88;;;13.40;99.90;;;;;;8325505;28;20057;-69
2021/04/11 18:27:23;;;;;;;37.75;18.25;;;13.10;99.90;;;;;;8352826;28;20121;-69
2021/04/11 18:31:36;;;;;;;37.50;18.23;;;12.90;99.90;;;;;;8338888;28;20041;-70
2021/04/11 18:35:46;;;;;;;38.95;18.58;;;12.80;99.90;;;;;;8351550;28;20057;-69
2021/04/11 18:39:53;;;;;;;39.08;18.58;;;12.90;99.90;;;;;;8342871;28;20028;-70
2021/04/11 18:44:24;;;;;;;39.33;18.90;;;12.80;99.90;;;;;;8325194;28;20033;-70
2021/04/11 18:48:46;;;;;;;38.90;18.73;;;12.80;99.90;;;;;;8311603;28;20108;-69
2021/04/11 18:53:27;;;;;;;38.40;18.48;;;12.60;99.90;;;;;;8311130;28;20133;-69
2021/04/11 18:57:47;;;;;;;37.53;18.15;;;12.50;99.90;;;;;;8312771;28;20029;-70
2021/04/11 19:02:08;;;;;;;38.10;18.35;;;12.40;99.90;;;;;;8307620;28;20480;-69
2021/04/11 19:06:32;;;;;;;37.05;17.92;;;12.30;99.90;;;;;;8302794;28;20045;-70
2021/04/11 19:10:58;;;;;;;37.25;17.98;;;12.20;99.90;;;;;;8322091;28;20037;-68
2021/04/11 19:15:14;;;;;;;36.65;17.33;;;12.20;99.90;;;;;;8307896;28;20116;-67
2021/04/11 19:19:42;;;;;;;36.22;17.63;;;12.00;99.90;;;;;;8322094;28;20041;-68
2021/04/11 19:23:49;;;;;;;37.70;18.15;;;11.80;99.90;;;;;;8305264;28;20402;-70
2021/04/11 19:28:14;;;;;;;37.03;17.63;;;11.90;99.90;;;;;;8311440;28;20029;-70
2021/04/11 19:32:47;;;;;;;37.22;18.23;;;11.70;99.90;;;;;;8302452;28;20083;-70
2021/04/11 19:36:58;;;;;;;36.42;17.70;;;11.80;99.90;;;;;;8301648;28;20734;-70
2021/04/11 19:41:18;;;;;;;37.20;17.98;;;11.80;99.90;;;;;;8301049;28;20022;-69
2021/04/11 19:45:57;;;;;;;37.80;18.05;;;11.70;99.90;;;;;;8303836;28;20026;-69
2021/04/11 19:50:11;;;;;;;38.28;17.90;;;11.70;99.90;;;;;;8303994;28;20014;-69
2021/04/11 19:54:19;;;;;;;38.60;18.55;;;11.70;99.90;;;;;;8298165;28;20061;-70
2021/04/11 19:58:40;;;;;;;38.53;18.48;;;11.70;99.90;;;;;;8305805;28;20068;-69
2021/04/11 20:02:59;;;;;;;38.65;18.60;;;11.70;99.90;;;;;;8300625;28;20459;-70
2021/04/11 20:07:29;;;;;;;38.28;17.98;;;11.70;99.90;;;;;;8310216;28;20032;-69
2021/04/11 20:11:47;;;;;;;39.35;18.40;;;11.60;99.90;;;;;;8307762;28;20682;-70
2021/04/11 20:16:33;;;;;;;39.45;18.30;;;11.60;99.90;;;;;;8303667;28;20033;-70
2021/04/11 20:20:37;;;;;;;40.67;18.65;;;11.60;99.90;;;;;;8294166;28;20761;-70
2021/04/11 20:24:44;;;;;;;40.40;18.88;;;11.60;99.90;;;;;;8304546;28;20396;-70
2021/04/11 20:29:11;;;;;;;39.40;18.25;;;11.60;99.90;;;;;;8299838;28;20814;-70
2021/04/11 20:33:28;;;;;;;39.22;18.27;;;11.60;99.90;;;;;;8299272;28;20021;-69
2021/04/11 20:38:01;;;;;;;37.58;18.10;;;11.60;99.90;;;;;;8321270;28;20032;-69
2021/04/11 20:42:44;;;;;;;38.08;17.75;;;11.70;99.90;;;;;;8295877;28;20137;-69
2021/04/11 20:47:16;;;;;;;39.30;18.40;;;11.60;99.90;;;;;;8304204;28;20033;-70
2021/04/11 20:51:19;;;;;;;37.90;18.27;;;11.50;99.90;;;;;;8314079;28;20025;-69
2021/04/11 20:55:35;;;;;;;37.67;17.95;;;11.70;99.90;;;;;;8298589;28;20053;-69
2021/04/11 21:00:13;;;;;;;37.20;18.13;;;11.80;99.90;;;;;;8296271;28;20101;-69
2021/04/11 21:04:24;;;;;;;37.08;17.85;;;11.50;99.90;;;;;;8305147;28;20037;-69
2021/04/11 21:08:55;;;;;;;37.17;17.67;;;11.40;99.90;;;;;;8331698;28;20074;-69
2021/04/11 21:13:14;;;;;;;37.75;17.85;;;11.40;99.90;;;;;;8332458;28;20037;-70
2021/04/11 21:17:31;;;;;;;37.58;17.63;;;11.40;99.90;;;;;;8332650;28;20109;-69
2021/04/11 21:21:46;;;;;;;37.47;17.73;;;11.60;99.90;;;;;;8331066;28;20036;-69
2021/04/11 21:26:04;;;;;;;37.10;17.77;;;11.50;99.90;;;;;;8330944;28;20029;-69
2021/04/11 21:30:12;;;;;;;36.65;17.88;;;11.40;99.90;;;;;;8331877;28;20026;-69
2021/04/11 21:34:44;;;;;;;37.25;18.00;;;11.10;99.90;;;;;;8332043;28;20100;-69
2021/04/11 21:39:13;;;;;;;29.73;17.05;;;10.90;99.90;;;;;;8331638;28;20025;-69
2021/04/11 21:43:19;;;;;;;28.95;16.95;;;10.50;99.90;;;;;;8331565;28;20084;-69
2021/04/11 21:47:54;;;;;;;32.35;17.58;;;10.30;99.90;;;;;;8331576;28;20025;-69